createdAt,value
2018-09-01T00:01:07.325Z,45.00
2018-09-01T00:03:35.570Z,44.90
2018-09-01T00:06:03.808Z,44.90
2018-09-01T00:08:32.173Z,45.00
2018-09-01T00:11:00.549Z,45.10
2018-09-01T00:13:28.892Z,44.90
2018-09-01T00:15:57.196Z,44.90
2018-09-01T00:18:25.510Z,45.60
2018-09-01T00:20:53.940Z,44.90
2018-09-01T00:23:22.284Z,44.90
2018-09-01T00:25:50.540Z,44.90
2018-09-01T00:28:18.896Z,45.00
2018-09-01T00:30:47.258Z,44.90
2018-09-01T00:33:15.490Z,45.10
2018-09-01T00:35:44.789Z,45.20
2018-09-01T00:38:18.452Z,45.20
2018-09-01T00:40:46.817Z,45.00
2018-09-01T00:43:15.118Z,45.00
2018-09-01T00:45:43.462Z,45.00
2018-09-01T00:48:11.741Z,45.20
2018-09-01T00:50:40.064Z,45.40
2018-09-01T00:53:08.432Z,45.40
2018-09-01T00:55:36.748Z,45.30
2018-09-01T00:58:04.988Z,45.20
2018-09-01T01:00:33.272Z,45.70
2018-09-01T01:03:01.540Z,45.00
2018-09-01T01:05:29.867Z,45.70
2018-09-01T01:07:58.188Z,45.10
2018-09-01T01:10:26.553Z,45.00
2018-09-01T01:12:54.876Z,45.00
2018-09-01T01:15:23.177Z,45.10
2018-09-01T01:17:51.424Z,45.00
2018-09-01T01:20:19.683Z,44.90
2018-09-01T01:22:47.965Z,45.10
2018-09-01T01:25:16.360Z,45.00
2018-09-01T01:27:44.668Z,45.20
2018-09-01T01:30:12.944Z,45.10
2018-09-01T01:32:41.213Z,45.10
2018-09-01T01:35:09.605Z,45.10
2018-09-01T01:37:37.865Z,45.00
2018-09-01T01:40:06.397Z,45.00
2018-09-01T01:42:35.814Z,45.00
2018-09-01T01:45:04.205Z,45.00
2018-09-01T01:47:36.261Z,45.10
2018-09-01T01:50:04.992Z,45.10
2018-09-01T01:52:33.389Z,45.00
2018-09-01T01:55:01.790Z,45.00
2018-09-01T01:57:30.153Z,45.00
2018-09-01T01:59:58.549Z,45.10
2018-09-01T02:02:26.827Z,45.20
2018-09-01T02:04:55.104Z,45.10
2018-09-01T02:07:23.456Z,45.10
2018-09-01T02:09:51.869Z,45.00
2018-09-01T02:12:20.457Z,44.90
2018-09-01T02:14:48.827Z,45.00
2018-09-01T02:17:17.148Z,44.80
2018-09-01T02:19:45.377Z,44.90
2018-09-01T02:22:13.700Z,45.00
2018-09-01T02:24:42.042Z,45.00
2018-09-01T02:27:10.425Z,44.90
2018-09-01T02:29:38.723Z,44.90
2018-09-01T02:32:06.957Z,44.90
2018-09-01T02:34:35.306Z,45.00
2018-09-01T02:37:03.621Z,45.00
2018-09-01T02:39:31.884Z,44.90
2018-09-01T02:42:00.191Z,44.90
2018-09-01T02:44:28.531Z,45.00
2018-09-01T02:46:56.904Z,44.90
2018-09-01T02:49:25.213Z,44.90
2018-09-01T02:51:53.534Z,44.80
2018-09-01T02:54:21.753Z,45.00
2018-09-01T02:56:50.096Z,45.00
2018-09-01T02:59:18.365Z,45.10
2018-09-01T03:01:46.650Z,44.90
2018-09-01T03:04:15.244Z,45.00
2018-09-01T03:06:56.024Z,44.90
2018-09-01T03:09:24.649Z,44.80
2018-09-01T03:11:53.753Z,44.90
2018-09-01T03:14:23.109Z,45.50
2018-09-01T03:16:52.100Z,44.80
2018-09-01T03:19:20.512Z,44.70
2018-09-01T03:21:48.794Z,44.80
2018-09-01T03:24:17.140Z,44.90
2018-09-01T03:26:45.449Z,44.90
2018-09-01T03:29:13.732Z,44.80
2018-09-01T03:31:42.034Z,44.90
2018-09-01T03:34:10.350Z,44.80
2018-09-01T03:36:38.695Z,44.90
2018-09-01T03:39:08.369Z,45.00
2018-09-01T03:41:36.968Z,44.90
2018-09-01T03:44:05.267Z,44.90
2018-09-01T03:46:33.521Z,44.90
2018-09-01T03:49:02.930Z,44.80
2018-09-01T03:51:31.236Z,44.80
2018-09-01T03:53:59.577Z,44.80
2018-09-01T03:56:27.878Z,44.90
2018-09-01T03:58:56.194Z,44.80
2018-09-01T04:01:24.462Z,44.70
2018-09-01T04:03:52.805Z,44.80
2018-09-01T04:06:21.070Z,44.80
2018-09-01T04:08:49.478Z,44.80
2018-09-01T04:11:17.773Z,44.70
2018-09-01T04:13:46.064Z,44.70
2018-09-01T04:16:14.361Z,44.80
2018-09-01T04:18:42.625Z,44.60
2018-09-01T04:21:10.997Z,45.20
2018-09-01T04:23:39.355Z,44.60
2018-09-01T04:26:07.622Z,44.70
2018-09-01T04:28:35.928Z,44.70
2018-09-01T04:31:04.193Z,44.80
2018-09-01T04:33:32.468Z,45.30
2018-09-01T04:36:00.752Z,44.60
2018-09-01T04:38:29.032Z,44.70
2018-09-01T04:40:57.280Z,44.60
2018-09-01T04:43:25.624Z,44.60
2018-09-01T04:45:53.953Z,44.60
2018-09-01T04:48:22.209Z,44.60
2018-09-01T04:50:50.542Z,44.60
2018-09-01T04:53:18.885Z,44.60
2018-09-01T04:55:47.160Z,44.40
2018-09-01T04:58:15.464Z,44.60
2018-09-01T05:00:43.748Z,44.50
2018-09-01T05:03:12.061Z,44.40
2018-09-01T05:05:40.440Z,44.50
2018-09-01T05:08:08.765Z,44.30
2018-09-01T05:10:38.725Z,44.40
2018-09-01T05:13:07.076Z,44.30
2018-09-01T05:15:35.445Z,44.40
2018-09-01T05:18:03.759Z,44.40
2018-09-01T05:20:32.082Z,44.40
2018-09-01T05:23:00.749Z,44.90
2018-09-01T05:25:29.090Z,44.90
2018-09-01T05:27:57.377Z,44.40
2018-09-01T05:30:26.476Z,44.40
2018-09-01T05:32:56.672Z,44.30
2018-09-01T05:35:27.025Z,44.20
2018-09-01T05:37:55.418Z,44.20
2018-09-01T05:40:23.805Z,44.10
2018-09-01T05:42:52.185Z,44.20
2018-09-01T05:45:20.481Z,44.20
2018-09-01T05:47:48.814Z,44.10
2018-09-01T05:50:17.256Z,44.10
2018-09-01T05:52:45.480Z,44.20
2018-09-01T05:55:13.832Z,44.10
2018-09-01T05:57:42.124Z,44.00
2018-09-01T06:00:10.472Z,44.10
2018-09-01T06:02:38.693Z,44.10
2018-09-01T06:05:07.553Z,44.00
2018-09-01T06:07:36.023Z,44.00
2018-09-01T06:10:04.341Z,44.30
2018-09-01T06:12:32.640Z,44.20
2018-09-01T06:15:01.006Z,44.20
2018-09-01T06:17:29.331Z,44.10
2018-09-01T06:19:57.700Z,44.20
2018-09-01T06:22:26.029Z,44.10
2018-09-01T06:24:54.320Z,44.10
2018-09-01T06:27:28.166Z,44.00
2018-09-01T06:29:56.513Z,44.10
2018-09-01T06:32:24.793Z,44.00
2018-09-01T06:34:53.076Z,44.10
2018-09-01T06:37:21.410Z,44.10
2018-09-01T06:39:49.803Z,44.10
2018-09-01T06:42:18.096Z,44.10
2018-09-01T06:44:46.356Z,44.20
2018-09-01T06:47:14.635Z,44.20
2018-09-01T06:49:42.885Z,44.20
2018-09-01T06:52:11.197Z,44.20
2018-09-01T06:54:39.508Z,44.30
2018-09-01T06:57:07.768Z,44.40
2018-09-01T06:59:36.166Z,44.40
2018-09-01T07:02:04.476Z,44.50
2018-09-01T07:04:32.746Z,44.40
2018-09-01T07:07:01.025Z,44.50
2018-09-01T07:09:29.350Z,44.40
2018-09-01T07:11:57.658Z,44.30
2018-09-01T07:14:25.950Z,44.40
2018-09-01T07:16:54.261Z,44.40
2018-09-01T07:19:22.597Z,44.60
2018-09-01T07:21:50.968Z,44.60
2018-09-01T07:24:19.260Z,44.30
2018-09-01T07:26:47.617Z,44.20
2018-09-01T07:29:15.905Z,44.20
2018-09-01T07:31:44.357Z,44.00
2018-09-01T07:34:12.705Z,44.10
2018-09-01T07:36:41.065Z,44.20
2018-09-01T07:39:09.390Z,44.40
2018-09-01T07:41:37.801Z,44.50
2018-09-01T07:44:06.328Z,44.40
2018-09-01T07:46:34.608Z,44.40
2018-09-01T07:49:02.911Z,44.40
2018-09-01T07:51:31.219Z,44.40
2018-09-01T07:53:59.485Z,44.40
2018-09-01T07:56:27.849Z,44.40
2018-09-01T07:58:56.153Z,44.40
2018-09-01T08:01:24.483Z,44.30
2018-09-01T08:03:52.813Z,44.30
2018-09-01T08:06:21.125Z,44.20
2018-09-01T08:08:49.501Z,44.20
2018-09-01T08:11:17.802Z,44.10
2018-09-01T08:13:46.327Z,44.10
2018-09-01T08:16:14.541Z,44.10
2018-09-01T08:18:42.909Z,43.90
2018-09-01T08:21:11.249Z,43.90
2018-09-01T08:23:39.503Z,43.90
2018-09-01T08:26:07.964Z,43.80
2018-09-01T08:28:36.325Z,43.70
2018-09-01T08:31:04.616Z,43.50
2018-09-01T08:33:32.874Z,43.40
2018-09-01T08:36:01.177Z,43.10
2018-09-01T08:38:29.483Z,43.00
2018-09-01T08:40:57.875Z,42.80
2018-09-01T08:43:26.153Z,42.70
2018-09-01T08:45:54.468Z,42.30
2018-09-01T08:48:22.832Z,42.00
2018-09-01T08:50:51.312Z,41.90
2018-09-01T08:53:19.620Z,41.50
2018-09-01T08:55:47.994Z,41.70
2018-09-01T08:58:16.416Z,42.20
2018-09-01T09:00:44.713Z,42.00
2018-09-01T09:03:13.003Z,42.20
2018-09-01T09:05:41.498Z,42.30
2018-09-01T09:08:09.724Z,42.30
2018-09-01T09:10:38.111Z,42.20
2018-09-01T09:13:06.459Z,42.10
2018-09-01T09:15:34.739Z,41.80
2018-09-01T09:18:03.045Z,41.70
2018-09-01T09:20:31.386Z,41.50
2018-09-01T09:22:59.734Z,41.10
2018-09-01T09:25:28.099Z,40.80
2018-09-01T09:27:56.410Z,40.60
2018-09-01T09:30:24.720Z,40.40
2018-09-01T09:32:53.928Z,40.00
2018-09-01T09:35:23.295Z,40.00
2018-09-01T09:37:51.555Z,39.80
2018-09-01T09:40:19.872Z,39.70
2018-09-01T09:42:48.185Z,39.50
2018-09-01T09:45:16.483Z,39.40
2018-09-01T09:47:44.729Z,39.30
2018-09-01T09:50:13.255Z,39.20
2018-09-01T09:52:41.864Z,38.80
2018-09-01T09:55:10.179Z,38.70
2018-09-01T09:57:38.512Z,38.50
2018-09-01T10:00:07.686Z,38.20
2018-09-01T10:02:36.070Z,38.30
2018-09-01T10:05:04.561Z,38.50
2018-09-01T10:07:33.904Z,38.30
2018-09-01T10:10:02.321Z,38.60
2018-09-01T10:12:30.710Z,38.40
2018-09-01T10:14:59.049Z,38.60
2018-09-01T10:17:27.411Z,38.70
2018-09-01T10:19:55.893Z,38.80
2018-09-01T10:22:24.216Z,38.90
2018-09-01T10:24:52.586Z,38.90
2018-09-01T10:27:21.158Z,39.30
2018-09-01T10:29:49.488Z,39.50
2018-09-01T10:32:17.789Z,39.70
2018-09-01T10:34:46.072Z,39.80
2018-09-01T10:37:14.441Z,40.10
2018-09-01T10:39:42.742Z,40.30
2018-09-01T10:42:11.069Z,40.40
2018-09-01T10:44:39.470Z,40.60
2018-09-01T10:47:07.873Z,40.80
2018-09-01T10:49:36.190Z,40.80
2018-09-01T10:52:04.568Z,40.60
2018-09-01T10:54:32.850Z,40.50
2018-09-01T10:57:01.236Z,40.00
2018-09-01T10:59:29.641Z,39.20
2018-09-01T11:01:57.870Z,38.80
2018-09-01T11:04:26.258Z,38.60
2018-09-01T11:06:54.560Z,38.30
2018-09-01T11:09:22.896Z,38.40
2018-09-01T11:11:52.259Z,38.50
2018-09-01T11:14:20.548Z,38.60
2018-09-01T11:16:48.932Z,38.90
2018-09-01T11:19:17.349Z,39.00
2018-09-01T11:21:45.730Z,39.10
2018-09-01T11:24:14.056Z,39.40
2018-09-01T11:26:42.437Z,39.70
2018-09-01T11:29:10.820Z,40.20
2018-09-01T11:31:39.161Z,40.50
2018-09-01T11:34:07.541Z,40.60
2018-09-01T11:36:35.818Z,40.80
2018-09-01T11:39:05.301Z,41.00
2018-09-01T11:41:33.772Z,40.80
2018-09-01T11:44:02.133Z,40.90
2018-09-01T11:46:30.422Z,41.10
2018-09-01T11:48:58.714Z,41.00
2018-09-01T11:51:27.061Z,40.80
2018-09-01T11:53:55.422Z,40.80
2018-09-01T11:56:23.689Z,40.70
2018-09-01T11:58:52.081Z,40.60
2018-09-01T12:01:20.404Z,40.60
2018-09-01T12:03:48.782Z,40.60
2018-09-01T12:06:17.172Z,40.60
2018-09-01T12:08:45.594Z,40.20
2018-09-01T12:11:14.409Z,40.20
2018-09-01T12:13:42.782Z,39.90
2018-09-01T12:16:11.069Z,37.30
2018-09-01T12:18:39.424Z,29.50
2018-09-01T12:21:07.763Z,27.40
2018-09-01T12:23:36.101Z,24.50
2018-09-01T12:26:04.450Z,25.60
2018-09-01T12:28:32.776Z,26.20
2018-09-01T12:31:01.094Z,25.80
2018-09-01T12:33:29.417Z,24.20
2018-09-01T12:35:57.731Z,22.40
2018-09-01T12:38:26.223Z,23.40
2018-09-01T12:40:54.552Z,24.20
2018-09-01T12:43:23.027Z,24.90
2018-09-01T12:45:51.332Z,23.20
2018-09-01T12:48:19.707Z,21.70
2018-09-01T12:50:48.068Z,20.20
2018-09-01T12:53:16.833Z,19.10
2018-09-01T12:55:45.259Z,18.30
2018-09-01T12:58:13.549Z,17.80
2018-09-01T13:00:41.967Z,17.70
2018-09-01T13:03:10.167Z,19.00
2018-09-01T13:05:38.545Z,18.50
2018-09-01T13:08:06.933Z,19.00
2018-09-01T13:10:35.285Z,19.40
2018-09-01T13:13:03.581Z,20.30
2018-09-01T13:15:31.917Z,21.30
2018-09-01T13:18:00.284Z,21.90
2018-09-01T13:20:28.894Z,22.70
2018-09-01T13:22:57.245Z,23.90
2018-09-01T13:25:25.607Z,24.00
2018-09-01T13:27:53.873Z,23.60
2018-09-01T13:30:22.114Z,24.00
2018-09-01T13:32:50.401Z,23.10
2018-09-01T13:35:18.730Z,21.40
2018-09-01T13:37:47.028Z,20.20
2018-09-01T13:40:15.487Z,19.50
2018-09-01T13:42:43.649Z,19.40
2018-09-01T13:45:12.019Z,20.10
2018-09-01T13:47:40.452Z,21.20
2018-09-01T13:50:08.768Z,22.30
2018-09-01T13:52:36.996Z,23.40
2018-09-01T13:55:05.221Z,24.90
2018-09-01T13:57:33.578Z,26.10
2018-09-01T14:00:01.948Z,27.20
2018-09-01T14:02:30.276Z,28.10
2018-09-01T14:04:58.592Z,28.00
2018-09-01T14:07:26.917Z,26.90
2018-09-01T14:09:55.206Z,25.50
2018-09-01T14:12:23.519Z,24.90
2018-09-01T14:14:52.001Z,25.00
2018-09-01T14:17:20.180Z,25.20
2018-09-01T14:19:48.452Z,25.70
2018-09-01T14:22:16.770Z,26.10
2018-09-01T14:24:45.109Z,26.60
2018-09-01T14:27:13.394Z,27.20
2018-09-01T14:29:41.785Z,27.50
2018-09-01T14:32:10.044Z,28.00
2018-09-01T14:34:38.344Z,28.30
2018-09-01T14:37:07.055Z,28.60
2018-09-01T14:39:35.397Z,28.80
2018-09-01T14:42:03.762Z,29.10
2018-09-01T14:44:32.147Z,29.30
2018-09-01T14:47:00.521Z,29.90
2018-09-01T14:49:28.828Z,30.20
2018-09-01T14:51:57.092Z,30.50
2018-09-01T14:54:25.449Z,31.20
2018-09-01T14:56:53.739Z,31.60
2018-09-01T14:59:22.135Z,32.00
2018-09-01T15:01:50.425Z,32.50
2018-09-01T15:04:18.737Z,33.00
2018-09-01T15:06:47.061Z,34.10
2018-09-01T15:09:15.405Z,33.80
2018-09-01T15:11:43.693Z,34.10
2018-09-01T15:14:12.662Z,34.40
2018-09-01T15:16:41.021Z,34.60
2018-09-01T15:19:09.657Z,34.50
2018-09-01T15:21:38.013Z,34.40
2018-09-01T15:24:06.676Z,34.30
2018-09-01T15:26:34.977Z,34.90
2018-09-01T15:29:03.339Z,34.20
2018-09-01T15:31:31.649Z,34.20
2018-09-01T15:33:59.974Z,34.20
2018-09-01T15:36:28.230Z,34.30
2018-09-01T15:38:56.519Z,34.40
2018-09-01T15:41:24.793Z,34.50
2018-09-01T15:43:53.139Z,34.50
2018-09-01T15:46:21.401Z,34.60
2018-09-01T15:48:49.725Z,34.60
2018-09-01T15:51:17.988Z,34.50
2018-09-01T15:53:47.279Z,34.60
2018-09-01T15:56:15.594Z,34.80
2018-09-01T15:58:43.826Z,34.90
2018-09-01T16:01:12.158Z,34.70
2018-09-01T16:03:40.453Z,34.80
2018-09-01T16:06:08.819Z,34.90
2018-09-01T16:08:37.113Z,35.00
2018-09-01T16:11:05.608Z,35.20
2018-09-01T16:13:33.981Z,35.20
2018-09-01T16:16:02.298Z,35.30
2018-09-01T16:18:30.630Z,35.50
2018-09-01T16:20:58.977Z,35.50
2018-09-01T16:23:27.312Z,35.60
2018-09-01T16:25:55.641Z,35.80
2018-09-01T16:28:24.190Z,36.00
2018-09-01T16:30:52.729Z,36.10
2018-09-01T16:33:21.245Z,36.40
2018-09-01T16:35:49.628Z,36.50
2018-09-01T16:38:18.000Z,36.70
2018-09-01T16:40:46.389Z,37.00
2018-09-01T16:43:14.665Z,37.10
2018-09-01T16:45:42.950Z,37.30
2018-09-01T16:48:11.240Z,37.60
2018-09-01T16:50:39.549Z,37.60
2018-09-01T16:53:07.820Z,37.80
2018-09-01T16:55:36.124Z,37.80
2018-09-01T16:58:04.446Z,38.00
2018-09-01T17:00:32.879Z,38.10
2018-09-01T17:03:01.122Z,38.20
2018-09-01T17:05:29.436Z,38.30
2018-09-01T17:07:57.710Z,38.50
2018-09-01T17:10:25.994Z,38.50
2018-09-01T17:12:54.256Z,38.70
2018-09-01T17:15:22.544Z,38.90
2018-09-01T17:17:51.424Z,38.90
2018-09-01T17:20:19.757Z,39.10
2018-09-01T17:22:48.052Z,39.20
2018-09-01T17:25:16.415Z,39.30
2018-09-01T17:27:44.767Z,39.30
2018-09-01T17:30:13.420Z,39.40
2018-09-01T17:32:41.761Z,39.50
2018-09-01T17:35:10.070Z,39.60
2018-09-01T17:37:38.365Z,39.70
2018-09-01T17:40:06.648Z,39.70
2018-09-01T17:42:34.913Z,39.80
2018-09-01T17:45:03.206Z,39.70
2018-09-01T17:47:31.519Z,39.90
2018-09-01T17:49:59.845Z,39.90
2018-09-01T17:52:28.107Z,40.10
2018-09-01T17:54:56.403Z,40.10
2018-09-01T17:57:24.687Z,40.10
2018-09-01T17:59:53.066Z,40.30
2018-09-01T18:02:21.488Z,40.40
2018-09-01T18:04:49.791Z,40.40
2018-09-01T18:07:18.096Z,40.40
2018-09-01T18:09:46.621Z,40.50
2018-09-01T18:12:14.905Z,40.60
2018-09-01T18:14:43.192Z,40.50
2018-09-01T18:17:11.489Z,40.70
2018-09-01T18:19:39.790Z,40.70
2018-09-01T18:22:08.242Z,40.60
2018-09-01T18:24:36.529Z,40.60
2018-09-01T18:27:04.825Z,40.80
2018-09-01T18:29:33.129Z,40.80
2018-09-01T18:32:01.439Z,40.90
2018-09-01T18:34:29.738Z,40.80
2018-09-01T18:36:57.986Z,41.20
2018-09-01T18:39:26.283Z,41.00
2018-09-01T18:41:54.584Z,41.10
2018-09-01T18:44:22.852Z,41.10
2018-09-01T18:46:51.132Z,41.20
2018-09-01T18:49:19.409Z,41.20
2018-09-01T18:51:47.715Z,41.20
2018-09-01T18:54:16.091Z,41.30
2018-09-01T18:56:44.392Z,41.40
2018-09-01T18:59:12.711Z,41.40
2018-09-01T19:01:41.039Z,41.40
2018-09-01T19:04:09.324Z,41.50
2018-09-01T19:06:44.357Z,41.60
2018-09-01T19:09:12.651Z,41.70
2018-09-01T19:11:40.919Z,41.80
2018-09-01T19:14:09.287Z,41.80
2018-09-01T19:16:37.475Z,41.80
2018-09-01T19:19:05.740Z,41.90
2018-09-01T19:21:34.021Z,42.00
2018-09-01T19:24:02.296Z,42.00
2018-09-01T19:26:30.566Z,42.20
2018-09-01T19:28:58.836Z,42.30
2018-09-01T19:31:27.125Z,42.10
2018-09-01T19:33:55.391Z,42.30
2018-09-01T19:36:23.715Z,42.20
2018-09-01T19:38:52.050Z,42.50
2018-09-01T19:41:20.348Z,42.40
2018-09-01T19:43:48.633Z,42.50
2018-09-01T19:46:17.045Z,42.60
2018-09-01T19:48:45.284Z,42.50
2018-09-01T19:51:13.623Z,42.60
2018-09-01T19:53:41.935Z,42.80
2018-09-01T19:56:10.271Z,42.80
2018-09-01T19:58:38.583Z,42.80
2018-09-01T20:01:06.904Z,42.90
2018-09-01T20:03:35.233Z,42.90
2018-09-01T20:06:03.536Z,42.90
2018-09-01T20:08:31.816Z,43.10
2018-09-01T20:11:00.121Z,43.00
2018-09-01T20:13:28.388Z,43.00
2018-09-01T20:15:56.724Z,42.90
2018-09-01T20:18:31.701Z,42.90
2018-09-01T20:21:00.000Z,42.90
2018-09-01T20:23:28.262Z,43.00
2018-09-01T20:25:56.528Z,43.10
2018-09-01T20:28:24.931Z,43.20
2018-09-01T20:30:53.217Z,43.30
2018-09-01T20:33:21.545Z,43.20
2018-09-01T20:35:55.240Z,43.10
2018-09-01T20:38:24.042Z,43.20
2018-09-01T20:40:52.388Z,43.20
2018-09-01T20:43:20.757Z,43.10
2018-09-01T20:45:49.180Z,43.20
2018-09-01T20:48:17.605Z,43.30
2018-09-01T20:50:45.908Z,43.30
2018-09-01T20:53:14.202Z,43.60
2018-09-01T20:55:42.461Z,43.80
2018-09-01T20:58:11.909Z,43.80
2018-09-01T21:00:40.405Z,43.90
2018-09-01T21:03:08.760Z,43.80
2018-09-01T21:05:37.044Z,44.00
2018-09-01T21:08:05.339Z,44.00
2018-09-01T21:10:33.654Z,43.60
2018-09-01T21:13:02.013Z,43.60
2018-09-01T21:15:30.268Z,43.50
2018-09-01T21:17:58.609Z,43.50
2018-09-01T21:20:26.925Z,44.00
2018-09-01T21:22:55.197Z,43.50
2018-09-01T21:25:23.489Z,43.60
2018-09-01T21:27:51.844Z,43.60
2018-09-01T21:30:20.173Z,43.60
2018-09-01T21:32:48.581Z,43.60
2018-09-01T21:35:16.893Z,43.70
2018-09-01T21:37:45.221Z,43.60
2018-09-01T21:40:13.724Z,43.50
2018-09-01T21:42:42.080Z,43.60
2018-09-01T21:45:10.478Z,43.60
2018-09-01T21:47:38.793Z,43.60
2018-09-01T21:50:07.313Z,43.60
2018-09-01T21:52:35.748Z,43.60
2018-09-01T21:55:04.117Z,43.60
2018-09-01T21:57:32.509Z,43.70
2018-09-01T22:00:00.854Z,43.80
2018-09-01T22:02:29.192Z,43.70
2018-09-01T22:05:02.904Z,43.80
2018-09-01T22:07:31.284Z,43.80
2018-09-01T22:09:59.753Z,43.60
2018-09-01T22:12:28.020Z,43.70
2018-09-01T22:14:56.280Z,44.30
2018-09-01T22:17:24.638Z,43.70
2018-09-01T22:19:52.952Z,43.70
2018-09-01T22:22:21.244Z,43.70
2018-09-01T22:24:49.592Z,43.70
2018-09-01T22:27:17.857Z,43.70
2018-09-01T22:29:46.228Z,43.60
2018-09-01T22:32:14.592Z,43.70
2018-09-01T22:34:43.064Z,44.40
2018-09-01T22:37:11.326Z,43.70
2018-09-01T22:39:39.654Z,43.70
2018-09-01T22:42:07.983Z,43.70
2018-09-01T22:44:36.309Z,43.70
2018-09-01T22:47:07.161Z,43.80
2018-09-01T22:49:35.486Z,43.80
2018-09-01T22:52:03.877Z,43.80
2018-09-01T22:54:32.195Z,43.90
2018-09-01T22:57:00.496Z,43.90
2018-09-01T22:59:28.839Z,43.90
2018-09-01T23:01:57.196Z,43.90
2018-09-01T23:04:25.490Z,43.90
2018-09-01T23:06:53.807Z,43.80
2018-09-01T23:09:22.451Z,43.80
2018-09-01T23:11:50.777Z,43.80
2018-09-01T23:14:19.036Z,43.80
2018-09-01T23:16:47.337Z,43.80
2018-09-01T23:19:15.674Z,43.90
2018-09-01T23:21:43.997Z,43.90
2018-09-01T23:24:12.312Z,43.80
2018-09-01T23:26:40.651Z,43.90
2018-09-01T23:29:08.937Z,43.90
2018-09-01T23:31:37.213Z,43.80
2018-09-01T23:34:05.481Z,44.00
2018-09-01T23:36:33.826Z,43.90
2018-09-01T23:39:02.218Z,44.00
2018-09-01T23:41:30.538Z,44.00
2018-09-01T23:43:58.796Z,44.00
2018-09-01T23:46:27.114Z,44.70
2018-09-01T23:48:55.401Z,44.00
2018-09-01T23:51:23.694Z,44.00
2018-09-01T23:53:52.070Z,44.70
2018-09-01T23:56:20.411Z,43.90
2018-09-01T23:58:48.712Z,44.70
